Etusivu
METAR-TAF:

METAR-TAF

Lentoasemat :

Wallis, Ranska

Leveyspiiri: 13-14S, Pituuspiiri: 176-10W, korkeus merenpinnasta: 23 m

Tämänhetkinen sää

Tämä raportti tehtiin 1 tunti ja 49 minuuttia sitten, kello 17.00 UTC
Tuuli 7 kn idästä/kaakosta, vaihdellen idän ja etelän/kaakon välillä
Lämpötila 27°C
Kosteus 74%
Ilmanpaine 1011 hPa
Näkyvyys 10 km tai enemmän

METAR: NLWW 231700Z AUTO 12007KT 080V150 9999 BKN027/// BKN044/// 27/22 Q1011 TEMPO SHRA

Aika: 06:49 (18:49 UTC)

Sääennuste

Tämä raportti tehtiin 1 tunti ja 49 minuuttia sitten, kello 17.00 UTC
Ennuste voimassa 23. päivästä klo 18 UTC - 24. päivään klo 18 UTC
Tuuli 10 kn idästä/kaakosta
Näkyvyys 10 km tai enemmän
Hajanaisia pilviä 2500 ft:n korkeudessa
Todennäköisyys 30% :
Ajoittain
23. päivästä klo 18 UTC - 23. päivään klo 21 UTC
vesikuuroja

TAF: NLWW 231700Z 2318/2418 11010KT 9999 SCT025 PROB30 TEMPO 2318/2321 SHRA

Säähavainnot ja -ennusteet yli 4000 lentoasemalta (METAR- ja TAF-raportit).

Käytössä olevat sääasemat on merkitty karttaan keltaisilla ja punaisilla pisteillä.

Aseta hiiri pisteen päälle nähdäksesi sääaseman nimen.

Klikkaa sitten nähdäksesi säähavainnot ja -ennusteet.

Kartan vaihtaminen: klikkaa mustalla rastilla varustettuja vihreitä pisteitä, niin voit zoomata sisään; viivalla varustettua vihreää pistettä, niin voit zoomata ulos tai vihreitä nuolia, niin pääset viereisille kartoille.


METAR-TAF: